Time;durP1;ratioP1;P1;durP2;ratioP2;P2;SDS_P1;SDS_P2;PMS_P1;PMS_P2;Temp;Humidity;BMP_temperature;BMP_pressure;BME280_temperature;BME280_humidity;BME280_pressure;Samples;Min_cycle;Max_cycle;Signal;HPM_P1;HPM_P2
2023/02/09 00:01:26;;;;;;;;;;;;;;;22.56;34.18;102777.09;7257956;19;153171;-57
2023/02/09 00:03:53;;;;;;;;;;;;;;;22.54;34.11;102785.81;7250972;19;153869;-58
2023/02/09 00:06:22;;;;;;;;;;;;;;;22.54;34.29;102787.75;7263250;19;152099;-58
2023/02/09 00:08:49;;;;;;;;;;;;;;;22.51;34.01;102782.69;7255264;19;153412;-58
2023/02/09 00:11:18;;;;;;;;;;;;;;;22.50;34.13;102781.84;7256072;19;154143;-57
2023/02/09 00:13:45;;;;;;;;;;;;;;;22.48;34.22;102767.22;7256770;19;152668;-58
2023/02/09 00:16:12;;;;;;;;;;;;;;;22.45;34.33;102752.81;7256712;19;153575;-58
2023/02/09 00:18:39;;;;;;;;;;;;;;;22.43;34.31;102770.00;7244962;19;154379;-58
2023/02/09 00:21:08;;;;;;;;;;;;;;;22.42;34.09;102759.00;7259066;19;153721;-58
2023/02/09 00:23:36;;;;;;;;;;;;;;;22.40;34.20;102750.81;7255120;19;153934;-58
2023/02/09 00:26:05;;;;;;;;;;;;;;;22.37;34.11;102757.03;7256181;19;152345;-58
2023/02/09 00:28:32;;;;;;;;;;;;;;;22.37;34.12;102756.19;7262942;19;153453;-58
2023/02/09 00:30:59;;;;;;;;;;;;;;;22.35;34.29;102750.00;7258968;19;152718;-58
2023/02/09 00:33:26;;;;;;;;;;;;;;;22.33;34.28;102757.84;7259562;19;153522;-57
2023/02/09 00:35:52;;;;;;;;;;;;;;;22.31;34.50;102760.09;7255808;19;154186;-58
2023/02/09 00:38:19;;;;;;;;;;;;;;;22.29;34.45;102751.09;7258271;19;152905;-58
2023/02/09 00:40:46;;;;;;;;;;;;;;;22.24;34.72;102737.00;7258097;19;154474;-58
2023/02/09 00:43:13;;;;;;;;;;;;;;;22.24;34.79;102749.09;7243081;19;157511;-58
2023/02/09 00:45:40;;;;;;;;;;;;;;;22.21;34.90;102731.91;7257486;19;153921;-58
2023/02/09 00:48:07;;;;;;;;;;;;;;;22.20;34.57;102736.69;7264001;19;153575;-58
2023/02/09 00:50:34;;;;;;;;;;;;;;;22.16;34.53;102744.84;7267462;19;153799;-58
2023/02/09 00:53:01;;;;;;;;;;;;;;;22.15;35.02;102737.53;7257830;19;154137;-59
2023/02/09 00:55:28;;;;;;;;;;;;;;;22.11;35.02;102715.84;7256385;19;155066;-59
2023/02/09 00:57:55;;;;;;;;;;;;;;;22.06;35.48;102735.53;7256738;19;153920;-59
2023/02/09 01:00:22;;;;;;;;;;;;;;;21.99;35.41;102718.03;7256198;19;153605;-58
2023/02/09 01:02:49;;;;;;;;;;;;;;;21.98;35.46;102745.34;7253554;19;154222;-58
2023/02/09 01:05:16;;;;;;;;;;;;;;;21.93;35.52;102720.00;7254052;19;153315;-58
2023/02/09 01:07:43;;;;;;;;;;;;;;;21.88;35.79;102722.75;7254696;19;153143;-58
2023/02/09 01:10:10;;;;;;;;;;;;;;;21.87;35.36;102721.03;7242000;19;154235;-58
2023/02/09 01:12:37;;;;;;;;;;;;;;;21.83;35.71;102725.53;7263977;19;154090;-58
2023/02/09 01:15:04;;;;;;;;;;;;;;;21.81;35.54;102729.72;7254629;19;154742;-58
2023/02/09 01:17:31;;;;;;;;;;;;;;;21.77;35.54;102725.78;7257564;19;152516;-58
2023/02/09 01:19:58;;;;;;;;;;;;;;;21.72;35.48;102721.81;7257349;19;153175;-58
2023/02/09 01:22:25;;;;;;;;;;;;;;;21.70;35.68;102731.66;7251502;19;155779;-59
2023/02/09 01:24:52;;;;;;;;;;;;;;;21.67;35.71;102735.00;7256204;19;152287;-58
2023/02/09 01:27:19;;;;;;;;;;;;;;;21.66;35.68;102728.56;7260480;19;152694;-59
2023/02/09 01:29:46;;;;;;;;;;;;;;;21.64;36.01;102718.69;7258960;19;154506;-59
2023/02/09 01:32:13;;;;;;;;;;;;;;;21.62;35.79;102702.06;7258679;19;154130;-58
2023/02/09 01:34:40;;;;;;;;;;;;;;;21.60;35.93;102693.06;7251311;19;156886;-59
2023/02/09 01:37:07;;;;;;;;;;;;;;;21.58;35.74;102698.09;7253782;19;152937;-59
2023/02/09 01:39:33;;;;;;;;;;;;;;;21.53;35.99;102697.25;7256238;19;156100;-58
2023/02/09 01:42:02;;;;;;;;;;;;;;;21.51;36.09;102708.75;7253912;19;154904;-58
2023/02/09 01:44:29;;;;;;;;;;;;;;;21.47;36.29;102718.88;7255441;19;153136;-57
2023/02/09 01:46:56;;;;;;;;;;;;;;;21.42;35.92;102718.84;7256944;19;154161;-58
2023/02/09 01:49:25;;;;;;;;;;;;;;;21.41;36.06;102716.28;7255185;19;153885;-57
2023/02/09 01:51:55;;;;;;;;;;;;;;;21.39;36.16;102710.94;7253559;19;153652;-57
2023/02/09 01:54:26;;;;;;;;;;;;;;;21.33;36.28;102700.78;7256309;19;153223;-57
2023/02/09 01:56:57;;;;;;;;;;;;;;;21.27;36.31;102694.25;7261383;19;152972;-58
2023/02/09 01:59:24;;;;;;;;;;;;;;;21.25;36.27;102695.66;7243531;19;152786;-57
2023/02/09 02:01:51;;;;;;;;;;;;;;;21.23;36.09;102703.50;7250793;19;153990;-57
2023/02/09 02:04:19;;;;;;;;;;;;;;;21.21;35.95;102694.53;7250661;19;154398;-57
2023/02/09 02:06:46;;;;;;;;;;;;;;;21.11;36.01;102695.25;7252364;19;152659;-57
2023/02/09 02:09:14;;;;;;;;;;;;;;;21.09;36.16;102702.25;7254183;19;153718;-57
2023/02/09 02:11:44;;;;;;;;;;;;;;;21.07;36.05;102693.25;7252489;19;152362;-58
2023/02/09 02:14:14;;;;;;;;;;;;;;;21.04;36.52;102693.78;7252835;19;156603;-57
2023/02/09 02:16:44;;;;;;;;;;;;;;;21.01;36.41;102702.75;7262097;19;153847;-57
2023/02/09 02:19:21;;;;;;;;;;;;;;;20.96;36.53;102703.56;7256408;19;153377;-57
2023/02/09 02:21:50;;;;;;;;;;;;;;;20.94;36.35;102694.53;7254929;19;154370;-57
2023/02/09 02:24:28;;;;;;;;;;;;;;;20.94;36.57;102702.16;7256095;19;153167;-57
2023/02/09 02:26:57;;;;;;;;;;;;;;;20.84;36.46;102706.56;7238447;19;153458;-57
2023/02/09 02:29:27;;;;;;;;;;;;;;;20.84;36.36;102706.56;7251292;19;153764;-57
2023/02/09 02:31:54;;;;;;;;;;;;;;;20.81;36.48;102709.03;7255118;19;152331;-57
2023/02/09 02:34:22;;;;;;;;;;;;;;;20.80;36.59;102716.63;7253921;19;154140;-57
2023/02/09 02:36:50;;;;;;;;;;;;;;;20.83;36.64;102712.44;7254245;19;155240;-57
2023/02/09 02:39:21;;;;;;;;;;;;;;;20.75;36.48;102708.19;7259976;19;152586;-57
2023/02/09 02:44:24;;;;;;;;;;;;;;;20.70;36.88;102704.47;7253099;19;154285;-57
2023/02/09 02:46:53;;;;;;;;;;;;;;;20.67;36.57;102697.41;7255582;19;153681;-57
2023/02/09 02:49:25;;;;;;;;;;;;;;;20.67;36.70;102688.16;7250005;19;154197;-57
2023/02/09 02:51:53;;;;;;;;;;;;;;;20.64;36.75;102667.06;7240763;19;156188;-58
2023/02/09 02:54:22;;;;;;;;;;;;;;;20.59;36.54;102683.84;7252054;19;153443;-58
2023/02/09 02:56:52;;;;;;;;;;;;;;;20.55;36.74;102679.03;7253491;19;154104;-58
2023/02/09 02:59:23;;;;;;;;;;;;;;;20.56;36.63;102694.78;7254478;19;155320;-58
2023/02/09 03:01:54;;;;;;;;;;;;;;;20.54;37.01;102694.19;7259285;19;153800;-58
2023/02/09 03:04:22;;;;;;;;;;;;;;;20.53;36.93;102693.38;7252639;19;152781;-58
2023/02/09 03:06:49;;;;;;;;;;;;;;;20.51;37.03;102694.72;7251013;19;154050;-57
2023/02/09 03:09:16;;;;;;;;;;;;;;;20.45;37.00;102681.72;7254740;19;154177;-58
2023/02/09 03:11:45;;;;;;;;;;;;;;;20.41;36.85;102682.28;7253241;19;152887;-58
2023/02/09 03:14:12;;;;;;;;;;;;;;;20.42;37.16;102683.13;7251658;19;152468;-58
2023/02/09 03:16:42;;;;;;;;;;;;;;;20.35;37.15;102688.94;7245519;19;154512;-58
2023/02/09 03:19:10;;;;;;;;;;;;;;;20.34;37.08;102692.88;7250261;19;154455;-58
2023/02/09 03:21:40;;;;;;;;;;;;;;;20.34;37.10;102704.13;7252577;19;152307;-58
2023/02/09 03:24:11;;;;;;;;;;;;;;;20.27;37.47;102694.16;7255696;19;154622;-57
2023/02/09 03:26:41;;;;;;;;;;;;;;;20.26;37.17;102692.50;7251977;19;155557;-57
2023/02/09 03:29:09;;;;;;;;;;;;;;;20.25;37.41;102690.78;7249111;19;154501;-57
2023/02/09 03:31:37;;;;;;;;;;;;;;;20.20;37.12;102693.53;7254250;19;154111;-57
2023/02/09 03:34:05;;;;;;;;;;;;;;;20.17;37.59;102680.03;7253345;19;153487;-58
2023/02/09 03:36:33;;;;;;;;;;;;;;;20.19;37.58;102689.88;7249610;19;155893;-57
2023/02/09 03:39:01;;;;;;;;;;;;;;;20.15;37.56;102693.47;7252123;19;154364;-58
2023/02/09 03:41:28;;;;;;;;;;;;;;;20.13;37.29;102690.06;7252905;19;154031;-58
2023/02/09 03:46:25;;;;;;;;;;;;;;;20.12;37.57;102691.19;7261439;19;153204;-58
2023/02/09 03:48:52;;;;;;;;;;;;;;;20.09;37.50;102697.31;7253725;19;154547;-58
2023/02/09 03:51:19;;;;;;;;;;;;;;;20.07;37.79;102694.78;7254189;19;153236;-58
2023/02/09 03:53:46;;;;;;;;;;;;;;;20.05;37.96;102704.56;7250210;19;153306;-58
2023/02/09 03:56:13;;;;;;;;;;;;;;;20.01;37.61;102694.97;7251883;19;154465;-58
2023/02/09 03:58:39;;;;;;;;;;;;;;;19.99;37.74;102687.66;7252008;19;154312;-58
2023/02/09 04:01:08;;;;;;;;;;;;;;;19.95;37.99;102674.44;7250909;19;152329;-58
2023/02/09 04:03:35;;;;;;;;;;;;;;;19.96;38.01;102688.22;7251996;19;154265;-58
2023/02/09 04:06:02;;;;;;;;;;;;;;;19.90;37.96;102686.44;7250815;19;152068;-58
2023/02/09 04:08:29;;;;;;;;;;;;;;;19.94;37.74;102692.41;7235215;19;154738;-58
2023/02/09 04:10:56;;;;;;;;;;;;;;;19.88;38.05;102688.69;7245937;19;154142;-58
2023/02/09 04:13:23;;;;;;;;;;;;;;;19.87;37.85;102691.72;7251982;19;153384;-57
2023/02/09 04:15:51;;;;;;;;;;;;;;;19.87;37.85;102701.00;7248666;19;153972;-58
2023/02/09 04:18:18;;;;;;;;;;;;;;;19.87;38.05;102702.94;7252712;19;152342;-58
2023/02/09 04:20:45;;;;;;;;;;;;;;;19.86;38.00;102709.66;7250907;19;153568;-58
2023/02/09 04:23:12;;;;;;;;;;;;;;;19.82;38.28;102709.34;7247005;19;155697;-58
2023/02/09 04:25:39;;;;;;;;;;;;;;;19.79;38.36;102698.66;7250438;19;153756;-58
2023/02/09 04:28:06;;;;;;;;;;;;;;;19.78;38.17;102710.97;7255944;19;153507;-58
2023/02/09 04:30:33;;;;;;;;;;;;;;;19.75;38.34;102719.06;7252306;19;154106;-58
2023/02/09 04:33:00;;;;;;;;;;;;;;;19.73;38.24;102727.72;7251141;19;153380;-59
2023/02/09 04:35:27;;;;;;;;;;;;;;;19.70;38.26;102731.06;7237766;19;152761;-58
2023/02/09 04:37:54;;;;;;;;;;;;;;;19.72;38.36;102739.19;7250526;19;153099;-58
2023/02/09 04:40:21;;;;;;;;;;;;;;;19.69;38.46;102749.00;7257612;19;153095;-58
2023/02/09 04:42:48;;;;;;;;;;;;;;;19.62;38.26;102739.94;7257384;19;154364;-58
2023/02/09 04:45:15;;;;;;;;;;;;;;;19.60;38.41;102739.31;7257329;19;154723;-59
2023/02/09 04:47:42;;;;;;;;;;;;;;;19.61;38.38;102740.19;7258069;19;153327;-59
2023/02/09 04:50:09;;;;;;;;;;;;;;;19.61;38.28;102746.63;7265817;19;153914;-58
2023/02/09 04:52:36;;;;;;;;;;;;;;;19.59;38.42;102743.22;7255489;19;153235;-58
2023/02/09 04:55:03;;;;;;;;;;;;;;;19.55;38.60;102733.66;7257819;19;155222;-58
2023/02/09 05:00:00;;;;;;;;;;;;;;;19.53;38.39;102711.47;7249633;19;154028;-58
2023/02/09 05:02:27;;;;;;;;;;;;;;;19.50;38.58;102713.94;7252515;19;153803;-59
2023/02/09 05:04:54;;;;;;;;;;;;;;;19.52;38.31;102729.41;7258329;19;154192;-59
2023/02/09 05:07:22;;;;;;;;;;;;;;;19.46;38.41;102730.44;7251537;19;153449;-59
2023/02/09 05:09:48;;;;;;;;;;;;;;;19.47;38.69;102742.50;7254728;19;154173;-59
2023/02/09 05:12:15;;;;;;;;;;;;;;;19.46;38.67;102743.59;7262790;19;154828;-58
2023/02/09 05:14:42;;;;;;;;;;;;;;;19.44;38.30;102751.44;7257163;19;154388;-58
2023/02/09 05:17:09;;;;;;;;;;;;;;;19.41;38.47;102740.69;7258088;19;154443;-58
2023/02/09 05:19:36;;;;;;;;;;;;;;;19.41;38.71;102751.91;7256425;19;153323;-58
2023/02/09 05:22:03;;;;;;;;;;;;;;;19.40;38.80;102755.81;7252603;19;153861;-58
2023/02/09 05:24:30;;;;;;;;;;;;;;;19.41;38.70;102749.09;7257902;19;154243;-58
2023/02/09 05:26:57;;;;;;;;;;;;;;;19.44;38.86;102759.84;7241832;19;154044;-58
2023/02/09 05:29:24;;;;;;;;;;;;;;;19.51;38.73;102746.47;7252895;19;154249;-58
2023/02/09 05:31:51;;;;;;;;;;;;;;;19.59;38.50;102751.66;7255847;19;153320;-57
2023/02/09 05:34:17;;;;;;;;;;;;;;;19.65;38.89;102761.84;7265779;19;153936;-57
2023/02/09 05:36:46;;;;;;;;;;;;;;;19.69;38.79;102760.22;7255305;19;152653;-57
2023/02/09 05:39:13;;;;;;;;;;;;;;;19.72;38.96;102756.88;7255611;19;153319;-57
2023/02/09 05:44:10;;;;;;;;;;;;;;;19.82;38.71;102761.78;7257829;19;153907;-57
2023/02/09 05:46:37;;;;;;;;;;;;;;;19.86;38.92;102772.22;7254984;19;154109;-58
2023/02/09 05:49:03;;;;;;;;;;;;;;;19.90;38.72;102773.41;7255166;19;154111;-57
2023/02/09 05:51:30;;;;;;;;;;;;;;;19.95;38.45;102772.63;7241153;19;156997;-57
2023/02/09 05:53:57;;;;;;;;;;;;;;;20.01;38.84;102774.41;7255734;19;152824;-57
2023/02/09 05:56:24;;;;;;;;;;;;;;;20.06;38.51;102777.28;7262786;19;154394;-57
2023/02/09 05:58:51;;;;;;;;;;;;;;;20.11;38.40;102777.34;7257746;19;153012;-57
2023/02/09 06:01:18;;;;;;;;;;;;;;;20.16;38.66;102765.34;7257214;19;153634;-57
2023/02/09 06:03:45;;;;;;;;;;;;;;;20.21;38.97;102773.81;7255764;19;153674;-57
2023/02/09 06:06:12;;;;;;;;;;;;;;;20.26;38.87;102782.31;7254218;19;152433;-58
2023/02/09 06:08:39;;;;;;;;;;;;;;;20.31;38.78;102785.19;7247921;19;153290;-58
2023/02/09 06:11:06;;;;;;;;;;;;;;;20.35;38.86;102789.19;7254273;19;152261;-58
2023/02/09 06:13:33;;;;;;;;;;;;;;;20.41;38.51;102774.06;7255476;19;153724;-57
2023/02/09 06:16:00;;;;;;;;;;;;;;;20.45;38.56;102778.06;7262251;19;153334;-57
2023/02/09 06:18:27;;;;;;;;;;;;;;;20.49;38.22;102782.03;7243684;19;153801;-58
2023/02/09 06:20:54;;;;;;;;;;;;;;;20.54;38.11;102787.69;7253997;19;153847;-58
2023/02/09 06:23:20;;;;;;;;;;;;;;;20.59;38.06;102793.38;7254533;19;153443;-58
2023/02/09 06:25:51;;;;;;;;;;;;;;;20.64;38.18;102801.88;7255080;19;154940;-57
2023/02/09 06:28:19;;;;;;;;;;;;;;;20.69;37.86;102810.34;7253049;19;153093;-57
2023/02/09 06:30:49;;;;;;;;;;;;;;;20.73;38.01;102800.28;7253774;19;153435;-57
2023/02/09 06:33:17;;;;;;;;;;;;;;;20.78;38.11;102810.72;7252677;19;154378;-57
2023/02/09 06:35:44;;;;;;;;;;;;;;;20.81;37.53;102816.66;7252153;19;153381;-57
2023/02/09 06:38:11;;;;;;;;;;;;;;;20.84;37.61;102818.94;7259136;19;152499;-58
2023/02/09 06:40:38;;;;;;;;;;;;;;;20.89;37.48;102820.13;7253736;19;153947;-58
2023/02/09 06:43:05;;;;;;;;;;;;;;;20.91;37.51;102823.50;7243473;19;153165;-57
2023/02/09 06:45:32;;;;;;;;;;;;;;;20.95;37.35;102827.47;7251930;19;154287;-58
2023/02/09 06:47:59;;;;;;;;;;;;;;;20.95;37.24;102825.50;7252955;19;152456;-57
2023/02/09 06:50:25;;;;;;;;;;;;;;;20.99;37.30;102831.44;7255102;19;153217;-57
2023/02/09 06:52:52;;;;;;;;;;;;;;;21.01;37.53;102838.50;7253275;19;154270;-58
2023/02/09 06:55:19;;;;;;;;;;;;;;;21.03;37.01;102836.25;7254173;19;154525;-57
2023/02/09 06:57:46;;;;;;;;;;;;;;;21.05;36.99;102838.81;7254163;19;153554;-58
2023/02/09 07:00:14;;;;;;;;;;;;;;;21.07;37.19;102837.44;7262328;19;153369;-58
2023/02/09 07:02:41;;;;;;;;;;;;;;;21.07;36.94;102834.63;7251901;19;153920;-57
2023/02/09 07:05:09;;;;;;;;;;;;;;;21.08;37.13;102839.13;7254458;19;154794;-57
2023/02/09 07:07:36;;;;;;;;;;;;;;;21.08;37.12;102841.94;7249378;19;153509;-57
2023/02/09 07:10:04;;;;;;;;;;;;;;;21.10;37.18;102842.53;7236540;19;153049;-57
2023/02/09 07:12:31;;;;;;;;;;;;;;;21.11;37.09;102844.22;7246730;19;152861;-57
2023/02/09 07:14:59;;;;;;;;;;;;;;;21.09;36.95;102840.81;7249909;19;153903;-57
2023/02/09 07:17:28;;;;;;;;;;;;;;;21.11;37.36;102849.84;7252412;19;153405;-57
2023/02/09 07:19:55;;;;;;;;;;;;;;;21.12;37.92;102853.50;7251965;19;152632;-57
2023/02/09 07:22:24;;;;;;;;;;;;;;;21.12;37.52;102845.09;7251284;19;153985;-57
2023/02/09 07:24:51;;;;;;;;;;;;;;;21.11;36.97;102837.75;7249183;19;153434;-58
2023/02/09 07:27:18;;;;;;;;;;;;;;;21.12;37.25;102845.91;7249638;19;153639;-58
2023/02/09 07:29:45;;;;;;;;;;;;;;;21.12;36.99;102847.91;7239270;19;152712;-57
2023/02/09 07:32:12;;;;;;;;;;;;;;;21.14;36.90;102849.34;7252868;19;153466;-58
2023/02/09 07:34:39;;;;;;;;;;;;;;;21.16;36.98;102852.75;7251637;19;153322;-58
2023/02/09 07:37:06;;;;;;;;;;;;;;;21.18;36.64;102858.94;7251495;19;152640;-59
2023/02/09 07:39:33;;;;;;;;;;;;;;;21.20;36.59;102859.53;7254030;19;153483;-59
2023/02/09 07:42:00;;;;;;;;;;;;;;;21.23;36.58;102860.94;7249306;19;153620;-58
2023/02/09 07:44:27;;;;;;;;;;;;;;;21.19;37.02;102856.97;7256951;19;152751;-57
2023/02/09 07:46:54;;;;;;;;;;;;;;;21.24;37.07;102857.88;7248466;19;153850;-58
2023/02/09 07:49:22;;;;;;;;;;;;;;;20.57;33.17;102851.78;7255658;19;152859;-56
2023/02/09 07:51:49;;;;;;;;;;;;;;;20.79;33.77;102857.38;7251484;19;154447;-58
2023/02/09 07:54:16;;;;;;;;;;;;;;;20.88;34.09;102858.59;7252431;19;153846;-57
2023/02/09 07:56:43;;;;;;;;;;;;;;;20.93;34.14;102855.84;7250430;19;153113;-56
2023/02/09 07:59:10;;;;;;;;;;;;;;;20.94;34.50;102863.13;7252516;19;155097;-58
2023/02/09 08:01:37;;;;;;;;;;;;;;;20.92;34.66;102867.34;7248546;19;153154;-57
2023/02/09 08:04:04;;;;;;;;;;;;;;;20.92;34.24;102865.38;7254043;19;152683;-56
2023/02/09 08:06:33;;;;;;;;;;;;;;;20.91;34.27;102868.44;7258297;19;153053;-57
2023/02/09 08:09:09;;;;;;;;;;;;;;;20.90;34.35;102875.16;7252513;19;153361;-57
2023/02/09 08:11:39;;;;;;;;;;;;;;;20.87;34.56;102879.38;7248822;19;153828;-57
2023/02/09 08:14:12;;;;;;;;;;;;;;;20.86;34.63;102886.09;7252100;19;153791;-57
2023/02/09 08:16:39;;;;;;;;;;;;;;;20.84;34.93;102893.97;7258629;19;153545;-57
2023/02/09 08:19:11;;;;;;;;;;;;;;;20.82;34.65;102898.97;7259845;19;153028;-57
2023/02/09 08:21:40;;;;;;;;;;;;;;;20.80;34.96;102898.41;7253700;19;153860;-57
2023/02/09 08:24:09;;;;;;;;;;;;;;;20.78;34.54;102903.44;7256124;19;153329;-57
2023/02/09 08:26:36;;;;;;;;;;;;;;;20.74;34.64;102905.91;7261851;19;152763;-57
2023/02/09 08:29:03;;;;;;;;;;;;;;;20.74;34.98;102917.16;7259260;19;153316;-57
2023/02/09 08:31:31;;;;;;;;;;;;;;;20.71;34.65;102914.03;7257335;19;153793;-57
2023/02/09 08:33:58;;;;;;;;;;;;;;;20.75;34.50;102920.81;7262958;19;153538;-57
2023/02/09 08:36:25;;;;;;;;;;;;;;;20.73;35.19;102929.50;7259910;19;152176;-59
2023/02/09 08:38:53;;;;;;;;;;;;;;;20.77;35.30;102933.47;7257787;19;153549;-57
2023/02/09 08:41:20;;;;;;;;;;;;;;;20.77;34.97;102930.66;7257920;19;153788;-57
2023/02/09 08:43:48;;;;;;;;;;;;;;;20.76;35.05;102937.38;7259264;19;154055;-57
2023/02/09 08:46:16;;;;;;;;;;;;;;;20.76;34.83;102934.59;7257760;19;153474;-57
2023/02/09 08:48:45;;;;;;;;;;;;;;;20.79;35.20;102942.50;7262567;19;154328;-57
2023/02/09 08:51:13;;;;;;;;;;;;;;;20.81;34.97;102942.22;7257334;19;152735;-57
2023/02/09 08:53:42;;;;;;;;;;;;;;;20.82;35.29;102947.59;7254247;19;153466;-57
2023/02/09 08:56:09;;;;;;;;;;;;;;;20.81;35.06;102948.69;7256214;19;152898;-57
2023/02/09 08:58:36;;;;;;;;;;;;;;;20.82;34.95;102956.03;7258686;19;153137;-57
2023/02/09 09:01:04;;;;;;;;;;;;;;;20.82;35.03;102958.84;7256965;19;156057;-57
2023/02/09 09:03:32;;;;;;;;;;;;;;;20.84;34.67;102961.41;7256373;19;154131;-57
2023/02/09 09:06:00;;;;;;;;;;;;;;;20.82;35.06;102963.59;7257890;19;153516;-57
2023/02/09 09:08:27;;;;;;;;;;;;;;;20.82;34.89;102956.03;7254310;19;153609;-57
2023/02/09 09:10:55;;;;;;;;;;;;;;;20.82;34.63;102972.88;7263855;19;153856;-57
2023/02/09 09:13:23;;;;;;;;;;;;;;;20.82;35.05;102958.84;7256346;19;154091;-57
2023/02/09 09:15:51;;;;;;;;;;;;;;;20.82;35.00;102967.25;7258060;19;153512;-57
2023/02/09 09:18:19;;;;;;;;;;;;;;;20.81;34.81;102968.38;7256255;19;152734;-57
2023/02/09 09:20:46;;;;;;;;;;;;;;;20.80;34.53;102977.06;7257050;19;155077;-57
2023/02/09 09:23:13;;;;;;;;;;;;;;;20.79;34.42;102972.56;7258094;19;153622;-57
2023/02/09 09:25:41;;;;;;;;;;;;;;;20.77;34.53;102980.38;7254837;19;152132;-57
2023/02/09 09:28:09;;;;;;;;;;;;;;;20.76;34.69;102975.88;7252455;19;154000;-57
2023/02/09 09:30:36;;;;;;;;;;;;;;;20.75;34.47;102980.66;7258137;19;153119;-57
2023/02/09 09:33:04;;;;;;;;;;;;;;;20.74;34.58;102975.31;7260620;19;153459;-57
2023/02/09 09:35:31;;;;;;;;;;;;;;;20.72;34.88;102983.97;7257732;19;152233;-57
2023/02/09 09:37:59;;;;;;;;;;;;;;;20.72;34.67;102989.59;7255299;19;154701;-57
2023/02/09 09:40:28;;;;;;;;;;;;;;;20.70;34.53;102974.13;7256609;19;153400;-57
2023/02/09 09:42:57;;;;;;;;;;;;;;;20.68;34.52;102981.94;7259861;19;154318;-57
2023/02/09 09:45:26;;;;;;;;;;;;;;;20.68;34.63;102990.38;7258243;19;153906;-57
2023/02/09 09:47:55;;;;;;;;;;;;;;;20.66;34.69;102982.22;7255266;19;153939;-57
2023/02/09 09:50:25;;;;;;;;;;;;;;;20.65;34.87;102988.09;7256035;19;152707;-57
2023/02/09 09:52:55;;;;;;;;;;;;;;;20.65;34.60;102997.38;7256380;19;152642;-57
2023/02/09 09:55:25;;;;;;;;;;;;;;;20.61;34.68;102996.19;7263667;19;154450;-57
2023/02/09 09:57:53;;;;;;;;;;;;;;;20.58;34.66;102990.25;7255388;19;153255;-57
2023/02/09 10:00:22;;;;;;;;;;;;;;;20.58;34.67;102988.28;7252661;19;154867;-57
2023/02/09 10:02:49;;;;;;;;;;;;;;;20.57;34.43;102997.84;7254981;19;153374;-57
2023/02/09 10:05:18;;;;;;;;;;;;;;;20.55;34.89;102993.56;7257109;19;154756;-57
2023/02/09 10:07:48;;;;;;;;;;;;;;;20.55;34.46;103002.00;7252276;19;153662;-57
2023/02/09 10:10:20;;;;;;;;;;;;;;;20.54;34.87;102991.84;7256090;19;153757;-57
2023/02/09 10:12:48;;;;;;;;;;;;;;;20.54;34.81;102997.47;7254169;19;153573;-57
2023/02/09 10:15:17;;;;;;;;;;;;;;;20.53;34.47;102993.00;7255247;19;154876;-57
2023/02/09 10:17:44;;;;;;;;;;;;;;;20.50;34.52;102988.72;7265969;19;153943;-57
2023/02/09 10:20:11;;;;;;;;;;;;;;;20.49;34.48;102992.63;7254584;19;155920;-57
2023/02/09 10:22:38;;;;;;;;;;;;;;;20.50;34.61;103007.53;7252098;19;154083;-57
2023/02/09 10:25:25;;;;;;;;;;;;;;;20.51;34.59;103017.66;7255515;19;153811;-57
2023/02/09 10:27:52;;;;;;;;;;;;;;;20.48;34.51;103024.66;7250989;19;154338;-57
2023/02/09 10:30:25;;;;;;;;;;;;;;;20.42;34.96;103028.47;7256773;19;153210;-57
2023/02/09 10:32:58;;;;;;;;;;;;;;;20.45;34.98;103016.72;7256736;19;153951;-57
2023/02/09 10:35:27;;;;;;;;;;;;;;;20.42;34.84;103025.66;7252019;19;154301;-57
2023/02/09 10:37:57;;;;;;;;;;;;;;;20.40;34.86;103017.50;7258775;19;153217;-57
2023/02/09 10:40:26;;;;;;;;;;;;;;;20.37;34.64;103018.03;7252009;19;156066;-57
2023/02/09 10:42:54;;;;;;;;;;;;;;;20.36;34.65;103013.50;7255323;19;153019;-57
2023/02/09 10:45:25;;;;;;;;;;;;;;;20.26;35.30;103023.72;7254554;19;153953;-56
2023/02/09 10:47:55;;;;;;;;;;;;;;;20.31;34.96;103035.88;7254499;19;154301;-57
2023/02/09 10:50:23;;;;;;;;;;;;;;;20.27;35.07;103033.81;7255031;19;153534;-57
2023/02/09 10:52:54;;;;;;;;;;;;;;;20.16;35.15;103034.75;7253225;19;154366;-57
2023/02/09 10:55:24;;;;;;;;;;;;;;;20.18;35.31;103035.34;7250905;19;155581;-57
2023/02/09 10:58:02;;;;;;;;;;;;;;;20.09;35.32;103034.91;7252084;19;153528;-57
2023/02/09 11:00:34;;;;;;;;;;;;;;;20.11;35.53;103029.06;7260743;19;154985;-57
2023/02/09 11:03:01;;;;;;;;;;;;;;;20.04;35.43;103031.16;7255239;19;153403;-57
2023/02/09 11:05:30;;;;;;;;;;;;;;;20.01;35.81;103021.31;7254134;19;153855;-57
2023/02/09 11:08:01;;;;;;;;;;;;;;;19.98;35.78;103027.44;7247619;19;154269;-57
2023/02/09 11:10:29;;;;;;;;;;;;;;;19.98;35.81;103027.44;7251929;19;153630;-57
2023/02/09 11:12:58;;;;;;;;;;;;;;;19.91;36.10;103038.81;7253597;19;154187;-57
2023/02/09 11:15:26;;;;;;;;;;;;;;;19.99;36.17;103031.94;7254730;19;154452;-57
2023/02/09 11:17:59;;;;;;;;;;;;;;;19.98;36.26;103027.44;7197423;19;155124;-57
2023/02/09 11:20:32;;;;;;;;;;;;;;;20.11;35.85;103032.72;7247230;19;154209;-57
2023/02/09 11:23:05;;;;;;;;;;;;;;;20.16;35.58;103032.81;7254991;19;154026;-57
2023/02/09 11:25:37;;;;;;;;;;;;;;;20.23;35.87;103027.00;7251393;19;153431;-57
2023/02/09 11:28:07;;;;;;;;;;;;;;;20.25;36.07;103028.47;7248492;19;156262;-57
2023/02/09 11:30:36;;;;;;;;;;;;;;;20.31;35.58;103035.03;7250543;19;153015;-57
2023/02/09 11:33:04;;;;;;;;;;;;;;;20.34;35.72;103034.53;7253113;19;154485;-57
2023/02/09 11:35:43;;;;;;;;;;;;;;;20.38;35.94;103025.34;7249535;19;156390;-58
2023/02/09 11:38:12;;;;;;;;;;;;;;;20.42;35.73;103009.69;7248009;19;153266;-57
2023/02/09 11:40:43;;;;;;;;;;;;;;;20.46;35.92;102995.97;7249203;19;152793;-57
2023/02/09 11:43:12;;;;;;;;;;;;;;;20.50;35.63;102997.16;7249054;19;154074;-57
2023/02/09 11:45:43;;;;;;;;;;;;;;;20.55;35.82;103000.03;7258269;19;153968;-56
2023/02/09 11:48:13;;;;;;;;;;;;;;;20.62;35.77;102992.28;7249802;19;154193;-56
2023/02/09 11:50:43;;;;;;;;;;;;;;;20.65;35.75;102986.13;7247750;19;152725;-57
2023/02/09 11:53:20;;;;;;;;;;;;;;;20.69;35.63;102994.88;7250749;19;156931;-57
2023/02/09 11:55:49;;;;;;;;;;;;;;;20.72;35.53;103003.63;7250379;19;154290;-57
2023/02/09 11:58:20;;;;;;;;;;;;;;;20.76;35.82;103002.00;7249625;19;153485;-57
2023/02/09 12:00:50;;;;;;;;;;;;;;;20.79;35.43;103006.28;7249397;19;152881;-57
2023/02/09 12:03:29;;;;;;;;;;;;;;;20.82;35.71;103015.03;7249875;19;153890;-57
2023/02/09 12:05:56;;;;;;;;;;;;;;;20.85;35.77;103010.84;7251852;19;154312;-57
2023/02/09 12:08:27;;;;;;;;;;;;;;;20.87;35.57;103005.81;7257067;19;153445;-57
2023/02/09 12:11:08;;;;;;;;;;;;;;;20.90;35.52;102998.81;7249131;19;153075;-57
2023/02/09 12:13:43;;;;;;;;;;;;;;;20.92;35.74;102990.97;7248540;19;154254;-57
2023/02/09 12:16:13;;;;;;;;;;;;;;;20.95;35.54;102999.72;7250380;19;154978;-57
2023/02/09 12:18:42;;;;;;;;;;;;;;;20.98;35.63;103002.03;7247236;19;154124;-57
2023/02/09 12:21:10;;;;;;;;;;;;;;;21.00;35.48;103004.56;7246174;19;153663;-57
2023/02/09 12:23:38;;;;;;;;;;;;;;;21.03;35.46;103004.06;7248946;19;153556;-57
2023/02/09 12:26:08;;;;;;;;;;;;;;;21.05;35.30;102999.00;7253335;19;153116;-57
2023/02/09 12:28:38;;;;;;;;;;;;;;;21.03;35.51;103001.25;7249676;19;154337;-57
2023/02/09 12:31:07;;;;;;;;;;;;;;;21.05;35.26;103004.63;7253992;19;153922;-57
2023/02/09 12:33:34;;;;;;;;;;;;;;;21.05;35.31;102999.00;7251840;19;154389;-57
2023/02/09 12:36:03;;;;;;;;;;;;;;;21.04;35.48;102998.16;7249659;19;154708;-56
2023/02/09 12:38:33;;;;;;;;;;;;;;;21.05;35.42;103002.69;7247981;19;154740;-57
2023/02/09 12:41:03;;;;;;;;;;;;;;;21.05;35.50;102997.06;7253343;19;153468;-57
2023/02/09 12:43:31;;;;;;;;;;;;;;;21.05;35.71;102996.22;7248044;19;153792;-57